Time;durP1;ratioP1;P1;durP2;ratioP2;P2;SDS_P1;SDS_P2;PMS_P1;PMS_P2;Temp;Humidity;BMP_temperature;BMP_pressure;BME280_temperature;BME280_humidity;BME280_pressure;Samples;Min_cycle;Max_cycle;Signal;HPM_P1;HPM_P2
2023/07/25 00:00:26;;;;;;;2.50;1.67;;;;;;;21.71;52.29;100595.13;5027912;28;20121;-73
2023/07/25 00:02:51;;;;;;;2.03;1.48;;;;;;;21.73;52.40;100594.13;5046705;28;20052;-74
2023/07/25 00:05:17;;;;;;;2.03;1.83;;;;;;;21.69;51.93;100588.38;5032299;28;20033;-75
2023/07/25 00:07:43;;;;;;;2.10;1.90;;;;;;;21.47;52.29;100544.47;5032465;28;20045;-73
2023/07/25 00:10:08;;;;;;;2.55;1.70;;;;;;;21.73;52.11;100587.00;5028248;28;20212;-75
2023/07/25 00:12:35;;;;;;;2.22;1.65;;;;;;;21.73;52.13;100588.84;5030342;28;20091;-75
2023/07/25 00:15:02;;;;;;;1.70;1.60;;;;;;;21.74;52.07;100583.34;5029964;28;20029;-75
2023/07/25 00:17:27;;;;;;;1.95;1.73;;;;;;;21.63;52.18;100560.84;5029140;28;20044;-75
2023/07/25 00:19:53;;;;;;;2.55;1.83;;;;;;;21.69;52.08;100577.78;5029987;28;20500;-74
2023/07/25 00:22:18;;;;;;;2.92;1.73;;;;;;;21.67;52.27;100577.97;5027728;28;20100;-75
2023/07/25 00:24:44;;;;;;;1.50;1.40;;;;;;;21.36;52.21;100524.66;5028180;28;20052;-77
2023/07/25 00:27:10;;;;;;;2.25;2.00;;;;;;;21.65;52.28;100574.72;5031750;28;20735;-75
2023/07/25 00:29:35;;;;;;;1.70;1.30;;;;;;;21.67;52.20;100579.81;5030469;28;20029;-74
2023/07/25 00:32:01;;;;;;;1.70;1.60;;;;;;;21.44;52.23;100540.38;5048264;28;20077;-75
2023/07/25 00:34:26;;;;;;;2.35;1.88;;;;;;;21.67;51.96;100575.34;5027824;28;20049;-75
2023/07/25 00:36:52;;;;;;;1.77;1.63;;;;;;;21.65;52.22;100565.94;5044415;28;20053;-75
2023/07/25 00:39:17;;;;;;;3.13;1.83;;;;;;;21.64;52.43;100564.31;5030273;28;20041;-73
2023/07/25 00:41:43;;;;;;;2.42;1.67;;;;;;;21.65;52.10;100566.75;5042550;28;20045;-74
2023/07/25 00:44:08;;;;;;;2.40;1.83;;;;;;;21.54;52.09;100538.19;5048423;28;20041;-74
2023/07/25 00:46:34;;;;;;;1.80;1.40;;;;;;;21.64;52.05;100557.19;5023838;28;20037;-74
2023/07/25 00:49:00;;;;;;;1.77;1.67;;;;;;;21.65;52.18;100569.41;5027253;28;20037;-74
2023/07/25 00:51:30;;;;;;;2.65;1.83;;;;;;;21.64;51.84;100561.66;5044766;28;20052;-73
2023/07/25 00:53:56;;;;;;;3.28;1.80;;;;;;;21.62;52.22;100569.81;5042910;28;20939;-74
2023/07/25 00:56:21;;;;;;;2.08;1.50;;;;;;;21.63;52.09;100563.50;5030767;28;20045;-74
2023/07/25 00:58:47;;;;;;;2.40;1.80;;;;;;;21.63;52.20;100566.16;5030765;28;20054;-73
2023/07/25 01:01:13;;;;;;;2.10;1.60;;;;;;;21.63;51.94;100565.34;5030366;28;20123;-75
2023/07/25 01:03:40;;;;;;;3.03;1.73;;;;;;;21.62;52.40;100561.06;5028706;28;20044;-73
2023/07/25 01:06:11;;;;;;;1.92;1.70;;;;;;;21.60;52.30;100566.56;5028248;28;20112;-73
2023/07/25 01:08:56;;;;;;;2.50;1.60;;;;;;;21.59;52.11;100570.22;5025980;28;20025;-74
2023/07/25 01:11:23;;;;;;;1.75;1.63;;;;;;;21.58;52.07;100568.59;5029533;28;20633;-73
2023/07/25 01:13:50;;;;;;;1.70;1.50;;;;;;;21.58;52.14;100570.41;5023319;28;20423;-74
2023/07/25 01:16:24;;;;;;;2.33;1.67;;;;;;;21.53;52.05;100563.03;5030716;28;20553;-73
2023/07/25 01:18:50;;;;;;;2.38;1.70;;;;;;;21.60;51.80;100577.16;5030029;28;20029;-72
2023/07/25 01:21:18;;;;;;;2.35;1.50;;;;;;;21.60;51.80;100574.50;5029978;28;20041;-72
2023/07/25 01:23:45;;;;;;;2.25;1.60;;;;;;;21.51;51.99;100561.59;5028472;28;20045;-72
2023/07/25 01:26:10;;;;;;;1.95;1.70;;;;;;;21.56;51.99;100575.09;5028615;28;20030;-72
2023/07/25 01:28:39;;;;;;;1.73;1.60;;;;;;;21.57;52.12;100571.44;5028411;28;20361;-74
2023/07/25 01:31:04;;;;;;;2.40;1.70;;;;;;;21.58;51.90;100581.00;5045663;28;20102;-74
2023/07/25 01:33:30;;;;;;;2.92;1.88;;;;;;;21.58;51.77;100581.00;5035435;28;20117;-73
2023/07/25 01:35:56;;;;;;;1.98;1.58;;;;;;;21.53;52.17;100572.81;5031518;28;20037;-74
2023/07/25 01:38:24;;;;;;;2.40;1.67;;;;;;;21.44;52.12;100556.28;5031929;28;20030;-74
2023/07/25 01:40:49;;;;;;;2.13;1.65;;;;;;;21.57;51.90;100582.03;5048123;28;20056;-74
2023/07/25 01:43:15;;;;;;;1.50;1.40;;;;;;;21.52;52.01;100582.59;5035096;28;20479;-75
2023/07/25 01:45:40;;;;;;;2.13;1.67;;;;;;;21.55;52.12;100586.72;5030707;28;20037;-75
2023/07/25 01:48:06;;;;;;;3.15;1.70;;;;;;;21.55;51.95;100592.00;5029216;28;20038;-72
2023/07/25 01:50:32;;;;;;;2.65;1.80;;;;;;;21.53;52.11;100578.94;5033101;28;20037;-73
2023/07/25 01:52:57;;;;;;;1.90;1.30;;;;;;;21.53;51.94;100575.47;5034063;28;20067;-71
2023/07/25 01:55:23;;;;;;;1.75;1.52;;;;;;;21.54;51.97;100574.44;5050674;28;20044;-71
2023/07/25 01:57:48;;;;;;;4.32;1.90;;;;;;;21.56;52.09;100573.25;5050596;28;20631;-70
2023/07/25 02:00:14;;;;;;;1.70;1.60;;;;;;;21.34;51.92;100547.88;5033469;28;20084;-71
2023/07/25 02:02:40;;;;;;;1.70;1.60;;;;;;;21.52;52.11;100579.13;5031888;28;20057;-70
2023/07/25 02:05:06;;;;;;;2.67;1.70;;;;;;;21.31;51.94;100541.13;5031215;28;20096;-71
2023/07/25 02:07:31;;;;;;;2.00;1.50;;;;;;;21.48;52.16;100573.41;5031536;28;20029;-71
2023/07/25 02:09:57;;;;;;;2.40;1.88;;;;;;;21.42;51.84;100563.63;5033962;28;20507;-73
2023/07/25 02:12:22;;;;;;;2.60;1.70;;;;;;;21.52;51.90;100574.66;5030616;28;20056;-73
2023/07/25 02:14:48;;;;;;;2.78;1.85;;;;;;;21.48;52.15;100578.72;5032396;28;20045;-71
2023/07/25 02:17:14;;;;;;;2.42;1.90;;;;;;;21.40;52.16;100563.00;5046928;28;20116;-72
2023/07/25 02:19:39;;;;;;;3.67;1.40;;;;;;;21.53;52.09;100583.41;5032592;28;20037;-69
2023/07/25 02:22:05;;;;;;;2.70;1.73;;;;;;;21.49;52.13;100575.03;5019484;28;20041;-71
2023/07/25 02:24:31;;;;;;;2.25;1.38;;;;;;;21.35;51.94;100560.91;5029189;28;20057;-71
2023/07/25 02:26:56;;;;;;;2.35;1.70;;;;;;;21.47;52.25;100576.25;5047973;28;20049;-71
2023/07/25 02:29:22;;;;;;;2.17;1.52;;;;;;;21.46;52.02;100586.03;5031240;28;20034;-70
2023/07/25 02:31:47;;;;;;;1.77;1.60;;;;;;;21.47;51.96;100587.69;5029748;28;20038;-72
2023/07/25 02:34:15;;;;;;;2.53;1.73;;;;;;;21.39;52.09;100575.44;5033398;28;20037;-70
2023/07/25 02:36:40;;;;;;;1.88;1.40;;;;;;;21.48;52.15;100594.59;5032937;28;20037;-71
2023/07/25 02:39:06;;;;;;;1.98;1.63;;;;;;;21.49;52.15;100592.78;5027527;28;20136;-70
2023/07/25 02:41:31;;;;;;;3.85;1.55;;;;;;;21.47;51.90;100590.31;5032897;28;20053;-71
2023/07/25 02:43:57;;;;;;;1.60;1.50;;;;;;;21.49;51.64;100590.13;5031674;28;20044;-70
2023/07/25 02:46:22;;;;;;;2.33;1.77;;;;;;;21.46;51.86;100591.34;5032534;28;20030;-71
2023/07/25 02:48:48;;;;;;;2.30;1.80;;;;;;;21.49;52.11;100584.81;5045244;28;20562;-70
2023/07/25 02:51:13;;;;;;;3.45;1.80;;;;;;;21.48;51.97;100586.66;5029058;28;20045;-70
2023/07/25 02:53:39;;;;;;;2.58;1.52;;;;;;;21.45;52.07;100580.94;5033448;28;20053;-70
2023/07/25 02:56:04;;;;;;;1.65;1.40;;;;;;;21.44;51.97;100593.38;5031396;28;20041;-71
2023/07/25 02:58:30;;;;;;;2.40;1.77;;;;;;;21.47;51.95;100585.03;5030233;28;20052;-71
2023/07/25 03:00:56;;;;;;;2.83;1.63;;;;;;;21.49;51.92;100584.81;5030030;28;20072;-70
2023/07/25 03:03:21;;;;;;;1.90;1.63;;;;;;;21.41;52.15;100581.34;5027763;28;20041;-70
2023/07/25 03:05:47;;;;;;;2.38;1.42;;;;;;;21.48;52.04;100588.50;5026277;28;20037;-71
2023/07/25 03:08:12;;;;;;;2.17;1.60;;;;;;;21.46;51.87;100590.53;5033010;28;20029;-70
2023/07/25 03:10:38;;;;;;;2.50;1.50;;;;;;;21.46;51.84;100586.03;5029260;28;20080;-70
2023/07/25 03:13:03;;;;;;;4.15;1.90;;;;;;;21.45;51.88;100583.59;5046023;28;20443;-71
2023/07/25 03:15:29;;;;;;;1.58;1.45;;;;;;;21.44;52.28;100585.44;5029070;28;20037;-71
2023/07/25 03:17:55;;;;;;;2.20;1.40;;;;;;;21.45;51.98;100586.25;5031860;28;20103;-70
2023/07/25 03:20:20;;;;;;;3.03;1.70;;;;;;;21.43;52.00;100583.78;5027722;28;20041;-70
2023/07/25 03:22:46;;;;;;;1.63;1.40;;;;;;;21.43;52.00;100583.78;5028205;28;20075;-72
2023/07/25 03:25:12;;;;;;;2.42;1.33;;;;;;;21.44;52.22;100589.91;5030917;28;20049;-73
2023/07/25 03:27:37;;;;;;;1.40;1.30;;;;;;;21.42;51.72;100590.91;5032943;28;20041;-73
2023/07/25 03:30:04;;;;;;;2.80;1.77;;;;;;;21.40;51.99;100585.00;5031406;28;20041;-73
2023/07/25 03:32:29;;;;;;;1.70;1.60;;;;;;;21.41;52.08;100586.63;5034856;28;20088;-71
2023/07/25 03:34:55;;;;;;;2.67;1.40;;;;;;;21.40;51.89;100587.66;5031446;28;20041;-73
2023/07/25 03:37:21;;;;;;;1.70;1.40;;;;;;;21.37;51.90;100585.41;5029962;28;20033;-73
2023/07/25 03:39:46;;;;;;;2.42;1.60;;;;;;;21.41;52.09;100588.47;5032227;28;20038;-72
2023/07/25 03:42:12;;;;;;;4.05;1.75;;;;;;;21.41;52.09;100591.13;5031163;28;20045;-74
2023/07/25 03:44:37;;;;;;;2.97;1.67;;;;;;;21.37;51.80;100585.41;5031572;28;20034;-74
2023/07/25 03:47:03;;;;;;;2.53;1.40;;;;;;;21.41;51.79;100594.59;5028939;28;20029;-74
2023/07/25 03:49:29;;;;;;;1.70;1.52;;;;;;;21.12;51.92;100550.56;5031642;28;20483;-75
2023/07/25 03:51:54;;;;;;;2.63;1.60;;;;;;;21.41;52.10;100594.59;5031040;28;20030;-74
2023/07/25 03:54:23;;;;;;;2.17;1.45;;;;;;;21.38;52.10;100597.63;5030401;28;20076;-75
2023/07/25 03:56:50;;;;;;;2.50;1.90;;;;;;;21.38;51.98;100597.63;5029547;28;20042;-75
2023/07/25 03:59:19;;;;;;;3.50;1.70;;;;;;;21.40;52.26;100594.78;5030992;28;20065;-74
2023/07/25 04:01:44;;;;;;;1.73;1.63;;;;;;;21.40;51.69;100597.44;5029256;28;20072;-75
2023/07/25 04:04:10;;;;;;;1.65;1.55;;;;;;;21.36;51.90;100589.06;5045338;28;20084;-71
2023/07/25 04:06:37;;;;;;;1.83;1.25;;;;;;;21.37;52.01;100597.81;5029827;28;20041;-72
2023/07/25 04:09:03;;;;;;;2.75;1.60;;;;;;;21.37;51.95;100603.13;5026666;28;20052;-71
2023/07/25 04:11:28;;;;;;;1.95;1.70;;;;;;;21.38;51.87;100604.75;5027296;28;20049;-71
2023/07/25 04:13:54;;;;;;;3.08;1.55;;;;;;;21.15;52.03;100570.53;5024333;28;20359;-73
2023/07/25 04:16:20;;;;;;;1.52;1.38;;;;;;;21.38;52.08;100604.75;5029456;28;20041;-72
2023/07/25 04:18:45;;;;;;;1.58;1.48;;;;;;;21.39;51.80;100603.75;5044203;28;20037;-71
2023/07/25 04:21:11;;;;;;;2.40;1.88;;;;;;;21.38;51.90;100613.53;5029564;28;20624;-72
2023/07/25 04:23:36;;;;;;;2.25;1.52;;;;;;;21.40;51.71;100613.31;5027252;28;20271;-71
2023/07/25 04:26:02;;;;;;;2.83;1.77;;;;;;;21.39;51.93;100609.84;5026591;28;20041;-71
2023/07/25 04:28:27;;;;;;;1.48;1.38;;;;;;;21.39;51.92;100606.41;5027287;28;20041;-72
2023/07/25 04:30:53;;;;;;;1.48;1.38;;;;;;;21.37;52.16;100601.28;5028378;28;20041;-71
2023/07/25 04:33:19;;;;;;;1.60;1.45;;;;;;;21.35;51.87;100599.81;5028498;28;20048;-72
2023/07/25 04:35:45;;;;;;;2.15;1.33;;;;;;;21.37;51.82;100603.94;5029263;28;20040;-72
2023/07/25 04:38:12;;;;;;;2.90;1.90;;;;;;;21.39;52.08;100601.91;5025323;28;20052;-73
2023/07/25 04:40:38;;;;;;;1.83;1.50;;;;;;;21.39;52.01;100603.75;5031450;28;20041;-73
2023/07/25 04:43:03;;;;;;;1.45;1.35;;;;;;;21.35;52.08;100605.94;5028988;28;20095;-72
2023/07/25 04:45:29;;;;;;;1.50;1.40;;;;;;;21.35;52.05;100608.59;5030624;28;20033;-72
2023/07/25 04:47:55;;;;;;;4.13;1.50;;;;;;;21.23;51.68;100588.13;5031504;28;20030;-72
2023/07/25 04:50:20;;;;;;;2.75;1.48;;;;;;;21.36;51.88;100599.66;5023881;28;20148;-73
2023/07/25 04:52:46;;;;;;;1.33;1.23;;;;;;;21.35;51.83;100605.94;5032367;28;20060;-71
2023/07/25 04:55:11;;;;;;;1.98;1.67;;;;;;;21.37;51.64;100605.78;5031588;28;20044;-72
2023/07/25 04:57:37;;;;;;;2.40;1.83;;;;;;;21.39;51.89;100614.34;5029464;28;20772;-72
2023/07/25 05:00:04;;;;;;;2.00;1.40;;;;;;;21.24;51.81;100595.91;5027396;28;20050;-72
2023/07/25 05:02:30;;;;;;;1.60;1.50;;;;;;;21.37;51.85;100617.19;5043590;28;20033;-71
2023/07/25 05:04:56;;;;;;;1.92;1.40;;;;;;;21.39;51.96;100617.00;5036303;28;20033;-73
2023/07/25 05:07:21;;;;;;;1.92;1.60;;;;;;;21.38;51.75;100612.72;5031391;28;20049;-73
2023/07/25 05:09:47;;;;;;;1.65;1.55;;;;;;;21.37;51.88;100625.13;5034965;28;20044;-73
2023/07/25 05:12:13;;;;;;;1.42;1.33;;;;;;;21.37;51.89;100619.84;5031205;28;20201;-71
2023/07/25 05:14:39;;;;;;;1.42;1.33;;;;;;;21.41;51.79;100622.91;5030558;28;20075;-72
2023/07/25 05:17:04;;;;;;;1.88;1.42;;;;;;;21.34;51.73;100617.56;5030835;28;20037;-71
2023/07/25 05:19:30;;;;;;;1.85;1.60;;;;;;;21.39;51.85;100631.06;5039531;28;20121;-73
2023/07/25 05:21:55;;;;;;;2.60;1.60;;;;;;;21.42;51.78;100633.31;5026036;28;20041;-72
2023/07/25 05:24:21;;;;;;;3.13;1.23;;;;;;;21.43;51.58;100626.19;5032689;28;20045;-72
2023/07/25 05:26:47;;;;;;;1.60;1.45;;;;;;;21.45;51.67;100623.31;5033757;28;20107;-73
2023/07/25 05:29:12;;;;;;;2.15;1.42;;;;;;;21.45;51.76;100631.28;5033018;28;20037;-72
2023/07/25 05:31:38;;;;;;;2.97;1.70;;;;;;;21.46;51.71;100631.06;5034432;28;20049;-73
2023/07/25 05:34:03;;;;;;;1.73;1.27;;;;;;;21.48;51.62;100625.59;5028201;28;20034;-71
2023/07/25 05:36:29;;;;;;;1.77;1.17;;;;;;;21.47;51.63;100630.06;5028721;28;20064;-72
2023/07/25 05:38:54;;;;;;;2.05;1.40;;;;;;;21.49;51.34;100635.16;5034126;28;20037;-71
2023/07/25 05:41:20;;;;;;;2.03;1.48;;;;;;;21.46;51.43;100627.63;5034418;28;20122;-70
2023/07/25 05:43:45;;;;;;;1.85;1.60;;;;;;;21.33;51.43;100610.63;5031713;28;20104;-71
2023/07/25 05:46:12;;;;;;;1.30;1.20;;;;;;;21.47;51.45;100627.41;5031434;28;20040;-71
2023/07/25 05:48:38;;;;;;;1.63;1.42;;;;;;;21.47;51.43;100629.25;5048026;28;20044;-72
2023/07/25 05:51:03;;;;;;;1.73;1.25;;;;;;;21.41;51.42;100625.56;5033126;28;20049;-71
2023/07/25 05:53:29;;;;;;;3.22;1.48;;;;;;;21.37;51.33;100629.63;5030706;28;20042;-70
2023/07/25 05:55:54;;;;;;;2.05;1.63;;;;;;;21.46;51.46;100635.56;5033975;28;20179;-72
2023/07/25 05:58:20;;;;;;;2.90;1.67;;;;;;;21.42;51.30;100628.00;5029859;28;20099;-72
2023/07/25 06:00:47;;;;;;;2.47;1.50;;;;;;;21.41;51.26;100631.66;5025144;28;20061;-71
2023/07/25 06:03:14;;;;;;;4.22;1.98;;;;;;;21.46;51.60;100633.72;5032368;28;20035;-71
2023/07/25 06:05:40;;;;;;;2.42;1.35;;;;;;;21.49;51.42;100643.09;5028063;28;20071;-72
2023/07/25 06:08:06;;;;;;;2.63;1.40;;;;;;;21.34;51.47;100622.84;5035425;28;20038;-70
2023/07/25 06:10:31;;;;;;;1.58;1.45;;;;;;;21.47;51.73;100640.66;5032519;28;20555;-72
2023/07/25 06:12:57;;;;;;;1.67;1.45;;;;;;;21.48;51.24;100639.66;5030582;28;20102;-70
2023/07/25 06:15:23;;;;;;;1.77;1.45;;;;;;;21.42;51.48;100628.00;5029034;28;20045;-72
2023/07/25 06:17:49;;;;;;;2.25;1.33;;;;;;;21.38;51.23;100613.53;5034738;28;20889;-71
2023/07/25 06:20:15;;;;;;;1.48;1.30;;;;;;;21.48;51.51;100631.69;5029291;28;20040;-72
2023/07/25 06:22:40;;;;;;;1.73;1.50;;;;;;;21.50;51.48;100623.56;5031462;28;20120;-70
2023/07/25 06:25:07;;;;;;;2.15;1.50;;;;;;;21.49;51.23;100622.72;5030544;28;20123;-71
2023/07/25 06:27:33;;;;;;;1.95;1.63;;;;;;;21.52;51.25;100622.34;5031819;28;20491;-72
2023/07/25 06:30:00;;;;;;;1.67;1.52;;;;;;;21.52;51.28;100635.59;5034623;28;20617;-73
2023/07/25 06:32:26;;;;;;;2.13;1.33;;;;;;;21.54;51.30;100630.09;5030079;28;20038;-74
2023/07/25 06:34:51;;;;;;;2.42;1.42;;;;;;;21.55;51.42;100634.41;5032292;28;20037;-71
2023/07/25 06:37:17;;;;;;;1.50;1.40;;;;;;;21.57;51.27;100632.38;5027603;28;20041;-70
2023/07/25 06:39:43;;;;;;;3.83;1.50;;;;;;;21.57;51.03;100622.59;5027935;28;20056;-73
2023/07/25 06:42:08;;;;;;;2.20;1.33;;;;;;;21.57;51.27;100621.78;5031611;28;20048;-71
2023/07/25 06:44:36;;;;;;;1.70;1.30;;;;;;;21.62;50.67;100629.94;5041816;28;20115;-71
2023/07/25 06:47:01;;;;;;;3.25;1.38;;;;;;;21.67;50.94;100640.78;5033057;28;20037;-71
2023/07/25 06:49:27;;;;;;;2.70;1.48;;;;;;;21.63;50.62;100621.78;5035086;28;20033;-70
2023/07/25 06:51:55;;;;;;;1.80;1.50;;;;;;;21.74;50.39;100633.69;5029743;28;20112;-73
2023/07/25 06:54:21;;;;;;;1.38;1.25;;;;;;;21.75;50.32;100632.66;5035924;28;20096;-73
2023/07/25 06:56:47;;;;;;;1.65;1.55;;;;;;;21.80;50.39;100630.25;5033310;28;20195;-73
2023/07/25 06:59:12;;;;;;;2.85;1.67;;;;;;;21.81;50.10;100631.06;5035537;28;20037;-71
2023/07/25 07:01:38;;;;;;;3.03;1.33;;;;;;;21.86;50.18;100629.44;5015153;28;20042;-72
2023/07/25 07:04:03;;;;;;;1.77;1.17;;;;;;;21.88;49.67;100630.06;5045298;28;20049;-72
2023/07/25 07:06:29;;;;;;;2.22;1.45;;;;;;;21.93;49.92;100632.13;5032804;28;20409;-72
2023/07/25 07:08:54;;;;;;;2.47;1.38;;;;;;;21.93;49.88;100625.00;5026587;28;20487;-71
2023/07/25 07:11:20;;;;;;;1.38;1.10;;;;;;;22.02;49.75;100637.03;5028625;28;20048;-72
2023/07/25 07:13:45;;;;;;;1.30;1.20;;;;;;;22.06;49.85;100634.84;5031962;28;20048;-70
2023/07/25 07:16:11;;;;;;;1.27;1.17;;;;;;;22.11;49.51;100632.44;5036294;28;20037;-72
2023/07/25 07:18:36;;;;;;;1.90;1.13;;;;;;;22.17;49.20;100631.63;5030685;28;20046;-71
2023/07/25 07:21:02;;;;;;;2.22;1.33;;;;;;;22.20;48.69;100631.22;5029181;28;20077;-69
2023/07/25 07:23:27;;;;;;;1.45;1.10;;;;;;;22.24;48.80;100624.50;5030832;28;20029;-70
2023/07/25 07:25:53;;;;;;;4.13;1.75;;;;;;;22.28;48.68;100631.06;5030280;28;20030;-70
2023/07/25 07:28:18;;;;;;;4.45;1.27;;;;;;;22.33;48.41;100641.06;5030041;28;20395;-71
2023/07/25 07:30:51;;;;;;;3.25;1.70;;;;;;;22.37;48.72;100631.66;5027508;28;20095;-71
2023/07/25 07:33:20;;;;;;;2.15;0.90;;;;;;;22.40;48.47;100633.09;5027864;28;20033;-71
2023/07/25 07:35:46;;;;;;;2.65;1.30;;;;;;;22.43;48.29;100638.00;5029019;28;20045;-71
2023/07/25 07:38:12;;;;;;;2.03;1.25;;;;;;;22.44;47.96;100637.81;5046882;28;20049;-72
2023/07/25 07:40:37;;;;;;;1.67;1.20;;;;;;;22.36;47.77;100613.31;5029044;28;20076;-70
2023/07/25 07:43:03;;;;;;;1.33;1.23;;;;;;;22.51;47.69;100643.94;5026761;28;20142;-70
2023/07/25 07:45:30;;;;;;;1.23;1.13;;;;;;;22.46;47.28;100627.00;5030035;28;20044;-71
2023/07/25 07:47:56;;;;;;;1.85;1.48;;;;;;;22.47;47.76;100626.00;5030213;28;20036;-71
2023/07/25 07:50:21;;;;;;;2.95;1.17;;;;;;;22.56;47.83;100643.34;5043329;28;20049;-71
2023/07/25 07:52:47;;;;;;;2.33;1.08;;;;;;;22.58;47.71;100644.75;5030123;28;20076;-71
2023/07/25 07:55:14;;;;;;;1.38;1.00;;;;;;;22.55;47.92;100631.91;5036424;28;20136;-73
2023/07/25 07:57:41;;;;;;;1.42;1.00;;;;;;;22.52;47.58;100624.34;5031825;28;20052;-72
2023/07/25 08:00:08;;;;;;;1.92;1.15;;;;;;;22.64;47.72;100645.81;5029161;28;20215;-72
2023/07/25 08:02:37;;;;;;;1.25;1.00;;;;;;;22.60;47.67;100642.72;5028633;28;20677;-71
2023/07/25 08:05:03;;;;;;;4.03;1.15;;;;;;;22.43;47.40;100622.91;5045900;28;20046;-70
2023/07/25 08:07:29;;;;;;;6.32;2.10;;;;;;;22.47;47.43;100642.72;5027818;28;20064;-71
2023/07/25 08:09:55;;;;;;;3.38;1.13;;;;;;;22.57;47.46;100652.94;5032882;28;20041;-71
2023/07/25 08:12:21;;;;;;;2.20;1.13;;;;;;;22.58;47.15;100651.91;5033643;28;20040;-71
2023/07/25 08:14:47;;;;;;;3.55;1.20;;;;;;;22.62;47.22;100658.44;5028406;28;20797;-70
2023/07/25 08:17:13;;;;;;;3.13;0.95;;;;;;;22.58;46.95;100646.59;5029077;28;20029;-71
2023/07/25 08:19:38;;;;;;;2.50;1.20;;;;;;;22.68;47.04;100662.97;5032914;28;20025;-70
2023/07/25 08:22:04;;;;;;;1.73;0.80;;;;;;;22.69;47.41;100667.25;5027456;28;20041;-71
2023/07/25 08:24:29;;;;;;;2.13;1.38;;;;;;;22.68;47.35;100662.97;5029286;28;20033;-71
2023/07/25 08:26:55;;;;;;;1.80;1.02;;;;;;;22.68;47.21;100662.16;5029786;28;20052;-72
2023/07/25 08:29:20;;;;;;;2.83;1.10;;;;;;;22.66;46.61;100665.00;5027176;28;20056;-71
2023/07/25 08:31:46;;;;;;;1.23;1.13;;;;;;;22.66;47.17;100664.19;5025577;28;20060;-72
2023/07/25 08:34:11;;;;;;;2.45;1.00;;;;;;;22.65;47.00;100676.66;5031892;28;20037;-70
2023/07/25 08:36:37;;;;;;;1.95;0.93;;;;;;;22.64;46.64;100671.53;5028173;28;20046;-70
2023/07/25 08:39:03;;;;;;;3.15;1.23;;;;;;;22.65;47.07;100679.28;5027297;28;20056;-74
2023/07/25 08:41:34;;;;;;;1.48;1.10;;;;;;;22.65;46.78;100681.94;5030074;28;20064;-74
2023/07/25 08:44:02;;;;;;;2.17;0.95;;;;;;;22.71;46.98;100682.97;5032197;28;20093;-74
2023/07/25 08:46:29;;;;;;;1.42;1.10;;;;;;;22.73;46.16;100678.28;5028465;28;20132;-73
2023/07/25 08:49:02;;;;;;;1.85;0.93;;;;;;;22.75;46.66;100674.41;5032914;28;20412;-74
2023/07/25 08:51:33;;;;;;;1.55;1.02;;;;;;;22.70;46.84;100676.84;5031829;28;20076;-75
2023/07/25 08:54:08;;;;;;;2.53;1.10;;;;;;;22.74;46.66;100680.72;5030591;28;20075;-74
2023/07/25 08:56:35;;;;;;;2.47;0.98;;;;;;;22.63;46.19;100667.25;5047790;28;20033;-74
2023/07/25 08:59:02;;;;;;;2.90;1.10;;;;;;;22.76;46.41;100691.13;5033154;28;20037;-74
2023/07/25 09:01:28;;;;;;;2.85;1.25;;;;;;;22.77;45.96;100687.47;5032144;28;20046;-74
2023/07/25 09:03:55;;;;;;;1.67;1.00;;;;;;;22.79;45.82;100688.88;5030490;28;20065;-75
2023/07/25 09:06:21;;;;;;;1.92;1.02;;;;;;;22.79;46.45;100690.72;5033106;28;20049;-75
2023/07/25 09:08:46;;;;;;;2.30;1.00;;;;;;;22.80;46.00;100689.72;5024451;28;20063;-74
2023/07/25 09:11:13;;;;;;;1.90;1.00;;;;;;;22.74;46.05;100683.38;5025983;28;20038;-73
2023/07/25 09:13:39;;;;;;;4.22;1.33;;;;;;;22.78;45.68;100689.09;5027450;28;20037;-74
2023/07/25 09:16:05;;;;;;;2.17;1.27;;;;;;;22.75;46.31;100694.81;5029156;28;20029;-75
2023/07/25 09:18:31;;;;;;;1.77;0.98;;;;;;;22.72;45.61;100693.38;5032325;28;20476;-76
2023/07/25 09:20:57;;;;;;;2.80;0.90;;;;;;;22.72;46.55;100698.69;5031978;28;20103;-74
2023/07/25 09:23:22;;;;;;;3.67;1.10;;;;;;;22.73;45.76;100699.50;5030371;28;20469;-74
2023/07/25 09:25:49;;;;;;;1.83;1.20;;;;;;;22.74;45.48;100695.84;5025333;28;20041;-73
2023/07/25 09:28:14;;;;;;;1.50;1.05;;;;;;;22.78;45.87;100702.38;5032600;28;20033;-74
2023/07/25 09:30:50;;;;;;;1.00;0.90;;;;;;;22.78;45.91;100703.19;5025857;28;20817;-74
2023/07/25 09:33:25;;;;;;;3.08;1.35;;;;;;;22.80;45.78;100700.31;5029079;28;20088;-75
2023/07/25 09:35:51;;;;;;;2.00;0.85;;;;;;;22.81;45.79;100708.13;5030192;28;20115;-74
2023/07/25 09:38:16;;;;;;;3.83;1.70;;;;;;;22.83;45.65;100705.28;5030126;28;20037;-74
2023/07/25 09:40:42;;;;;;;1.88;1.10;;;;;;;22.78;45.82;100705.84;5030261;28;20046;-73
2023/07/25 09:43:08;;;;;;;2.15;0.90;;;;;;;22.77;45.59;100709.50;5029923;28;20045;-73
2023/07/25 09:45:36;;;;;;;1.48;1.05;;;;;;;22.78;45.88;100711.16;5030483;28;20048;-74
2023/07/25 09:48:04;;;;;;;4.28;2.00;;;;;;;22.80;45.66;100708.28;5028300;28;20037;-74
2023/07/25 09:50:35;;;;;;;0.80;0.80;;;;;;;22.83;45.74;100710.59;5030982;28;20104;-74
2023/07/25 09:53:04;;;;;;;1.63;0.90;;;;;;;22.80;45.59;100706.47;5032920;28;20092;-74
2023/07/25 09:55:29;;;;;;;1.67;0.93;;;;;;;22.80;45.37;100719.75;5029558;28;20073;-73
2023/07/25 09:57:55;;;;;;;1.70;1.00;;;;;;;22.78;45.35;100719.13;5031471;28;20045;-74
2023/07/25 10:00:21;;;;;;;1.92;1.00;;;;;;;22.76;45.82;100720.34;5034569;28;20060;-74
2023/07/25 10:02:48;;;;;;;3.03;1.08;;;;;;;22.75;46.21;100726.66;5033874;28;20053;-74
2023/07/25 10:05:14;;;;;;;1.13;0.80;;;;;;;22.74;45.15;100725.84;5032640;28;20029;-74
2023/07/25 10:07:41;;;;;;;1.45;0.82;;;;;;;22.77;45.76;100736.06;5030953;28;20105;-73
2023/07/25 10:10:07;;;;;;;3.45;1.02;;;;;;;22.77;45.67;100738.72;5032750;28;20047;-74
2023/07/25 10:12:33;;;;;;;0.90;0.70;;;;;;;22.71;45.11;100728.09;5034449;28;20275;-73
2023/07/25 10:14:58;;;;;;;1.90;1.10;;;;;;;22.75;45.67;100738.09;5032790;28;20033;-73
2023/07/25 10:17:25;;;;;;;1.33;0.98;;;;;;;22.72;45.93;100745.66;5032356;28;20072;-74
2023/07/25 10:19:52;;;;;;;0.98;0.90;;;;;;;22.72;46.00;100741.16;5031959;28;20045;-74
2023/07/25 10:22:34;;;;;;;0.75;0.75;;;;;;;22.73;45.71;100750.75;5031748;28;20080;-74
2023/07/25 10:25:00;;;;;;;1.45;0.82;;;;;;;22.73;45.68;100741.97;5032203;28;20041;-75
2023/07/25 10:27:26;;;;;;;1.23;0.85;;;;;;;22.67;45.44;100734.84;5032199;28;20834;-74
2023/07/25 10:29:51;;;;;;;1.17;0.73;;;;;;;22.71;45.91;100747.50;5028273;28;20041;-73
2023/07/25 10:32:42;;;;;;;3.15;1.50;;;;;;;22.69;45.93;100746.88;5031580;28;20045;-72
2023/07/25 10:35:08;;;;;;;1.20;0.80;;;;;;;22.68;46.12;100747.09;5029017;28;20068;-72
2023/07/25 10:37:40;;;;;;;1.48;0.80;;;;;;;22.68;45.70;100741.78;5030540;28;20068;-72
2023/07/25 10:40:12;;;;;;;1.55;1.20;;;;;;;22.65;46.17;100752.78;5030438;28;20037;-72
2023/07/25 10:42:43;;;;;;;2.03;1.23;;;;;;;22.65;46.05;100745.66;5031830;28;20041;-74
2023/07/25 10:45:27;;;;;;;1.95;1.13;;;;;;;22.67;46.27;100742.78;5032781;28;20034;-74
2023/07/25 10:47:53;;;;;;;1.85;1.27;;;;;;;22.64;45.88;100740.53;5031707;28;20041;-72
2023/07/25 10:50:24;;;;;;;3.60;1.10;;;;;;;22.65;45.79;100747.50;5027685;28;20247;-71
2023/07/25 10:52:50;;;;;;;2.05;1.23;;;;;;;22.67;46.01;100743.63;5036509;28;20041;-72
2023/07/25 10:55:15;;;;;;;0.88;0.88;;;;;;;22.66;45.77;100744.63;5030819;28;20041;-72
2023/07/25 10:57:41;;;;;;;2.42;0.80;;;;;;;22.64;45.85;100741.38;5030011;28;20052;-72
2023/07/25 11:00:10;;;;;;;1.05;0.98;;;;;;;22.58;46.07;100735.00;5016100;28;20538;-73
2023/07/25 11:02:39;;;;;;;2.47;1.48;;;;;;;22.65;45.75;100743.00;5031651;28;20494;-71
2023/07/25 11:05:13;;;;;;;3.08;1.40;;;;;;;22.64;45.67;100738.72;5029072;28;20044;-73
2023/07/25 11:07:45;;;;;;;3.30;1.02;;;;;;;22.64;45.63;100732.59;5046009;28;20794;-72
2023/07/25 11:10:22;;;;;;;4.28;1.25;;;;;;;22.56;45.84;100710.50;5031028;28;20608;-74
2023/07/25 11:12:56;;;;;;;4.07;1.20;;;;;;;22.68;45.78;100731.97;5028274;28;20040;-72
2023/07/25 11:15:22;;;;;;;2.30;1.23;;;;;;;22.61;45.48;100716.00;5030333;28;20048;-73
2023/07/25 11:17:48;;;;;;;3.13;1.05;;;;;;;22.70;45.51;100729.94;5032384;28;20053;-72
2023/07/25 11:20:19;;;;;;;1.65;1.10;;;;;;;22.68;45.63;100725.84;5028294;28;20212;-71